Metar Cercanos

 

LEPA - Palma De Mallorc, Spain
Distance from station: ONO 38km
Actualización: Sun, 04-Dec-2022 10:00am CET
Muy nuboso
Muy nuboso
 Viento del NE
Viento: NE 2 km/h
Temperatura: 13°C
Rocío: 12°C
Humedad: 94%
Barómetro: 1010 hPa
Clouds: Muy nuboso
Visibility: 10 km
Cloud details: Few Clouds 762 m
Muy nuboso 1219 m
2022/12/04 09:00 LEPA 040900Z 05001KT 9999 FEW025 BKN040 13/12 Q1010 NOSIG
LEMH - Mahon/Menorca Is, Spain
Distance from station: ENE 105km
Actualización: Sun, 04-Dec-2022 10:00am CET
Parcialmente nuboso
Parcialmente nuboso
 Viento del SO
Viento: SO 17 km/h
Temperatura: 15°C
Rocío: 11°C
Humedad: 77%
Barómetro: 1011 hPa
Clouds: Parcialmente nuboso
Visibility: 10 km
Cloud details: Few Clouds 762 m
Parcialmente nuboso 975 m
2022/12/04 09:00 LEMH 040900Z 22009KT 180V260 9999 FEW025 SCT032 15/11 Q1011
 
LEIB - Ibiza/Es Codola, Spain
Distance from station: OSO 165km
Actualización: Sun, 04-Dec-2022 10:00am CET
Parcialmente nuboso
Parcialmente nuboso
 Viento del SSO
Viento: SSO 20 km/h
Temperatura: 17°C
Rocío: 11°C
Humedad: 68%
Barómetro: 1010 hPa
Clouds: Parcialmente nuboso
Visibility: 10 km
Cloud details: Parcialmente nuboso 975 m
2022/12/04 09:00 LEIB 040900Z 20011KT 170V230 9999 SCT032 17/11 Q1010 NOSIG
LEBL - Barcelona Airpor, Spain
Distance from station: NNO 225km
Actualización: Sun, 04-Dec-2022 10:00am CET
Few Clouds
Few Clouds
 Viento del NNO
Viento: NNO 20 km/h
Temperatura: 7°C
Sensación frio: 4°C
Rocío: 5°C
Humedad: 87%
Barómetro: 1010 hPa
Clouds: Few Clouds
Visibility: 10 km
Cloud details: Few Clouds 671 m
2022/12/04 09:00 LEBL 040900Z 33011KT 9999 FEW022 07/05 Q1010 NOSIG
 
LEVC - Valencia (civ/Mi, Spain
Distance from station: NO 188km
Actualización: Sun, 04-Dec-2022 10:00am CET
Muy nuboso
Muy nuboso
 Viento del ONO
Viento: ONO 9 km/h
Temperatura: 12°C
Rocío: 7°C
Humedad: 72%
Barómetro: 1010 hPa
Clouds: Muy nuboso
Visibility: 10 km
Cloud details: Muy nuboso 1768 m
2022/12/04 09:00 LEVC 040900Z 29005KT 270V330 9999 BKN058 12/07 Q1010 NOSIG
LEGE - Gerona/Costa Bra, Spain
Distance from station: N 276km
Actualización: Sun, 04-Dec-2022 10:00am CET
Patches of fog, Few clouds
Patches of fog, Few clouds
 Viento del varies
Viento: varies 4 km/h
Temperatura: 8°C
Rocío: 7°C
Humedad: 93%
Barómetro: 1009 hPa
Resumen: Patches of Fog
Clouds: Few Clouds
Visibility: 9 km
Cloud details: Few Clouds 610 m
2022/12/04 09:00 LEGE 040900Z VRB02KT 9000 4000SW BCFG FEW020 08/07 Q1009
 
LEAL - Alicante/El Alte, Spain
Distance from station: OSO 344km
Actualización: Sun, 04-Dec-2022 10:00am CET
Few Clouds
Few Clouds
 Viento del varies
Viento: varies 4 km/h
Temperatura: 14°C
Rocío: 10°C
Humedad: 77%
Barómetro: 1011 hPa
Clouds: Few Clouds
Visibility: 10 km
Cloud details: Few Clouds 914 m
2022/12/04 09:00 LEAL 040900Z VRB02KT 9999 FEW030 14/10 Q1011 NOSIG
LEAM - Almeria Airport, Spain
Distance from station: SSO 56km
Actualización: Sun, 04-Dec-2022 10:00am CET
Muy nuboso
Muy nuboso
 Viento del NNO
Viento: NNO 7 km/h
Temperatura: 15°C
Rocío: 9°C
Humedad: 68%
Barómetro: 1011 hPa
Clouds: Muy nuboso
Visibility: 10 km
Cloud details: Parcialmente nuboso 1829 m
Muy nuboso 2743 m
2022/12/04 09:00 LEAM 040900Z 33004KT 9999 SCT060 BKN090 15/09 Q1011
 
LEZG - Zaragoza (mil/Ci, Spain
Distance from station: NO 431km
Actualización: Sun, 04-Dec-2022 10:00am CET
Mist, Cubierto
Mist, Cubierto
 Viento del varies
Viento: varies 4 km/h
Temperatura: 5°C
Rocío: 4°C
Humedad: 93%
Barómetro: 1011 hPa
Resumen: Mist
Clouds: Cubierto
Visibility: 3 km
Cloud details: Cubierto 213 m
2022/12/04 09:00 LEZG 040900Z VRB02KT 2500 BR OVC007 05/04 Q1011
LEMD - Madrid/Barajas, Spain
Distance from station: ONO 234km
Actualización: Sun, 04-Dec-2022 10:06am CET
Muy nuboso
Muy nuboso
 Viento del N
Viento: N 6 km/h
Temperatura: 2°C
Rocío: 0°C
Humedad: 87%
Barómetro: 1009 hPa
Clouds: Muy nuboso
Visibility: 10 km
Cloud details: Muy nuboso 244 m
Muy nuboso 1524 m
2022/12/04 09:06 LEMD 040906Z 35003KT 310V020 9999 BKN008 BKN050 02/00 Q1009 NOSIG
 
LEGR - Granada Airport, Spain
Distance from station: OSO 62km
Actualización: Sun, 04-Dec-2022 10:00am CET
Muy nuboso
Muy nuboso
 Viento del calm
Viento: Calma
Temperatura: 9°C
Rocío: 9°C
Humedad: 100%
Barómetro: 1011 hPa
Clouds: Muy nuboso
Visibility: 10 km
Cloud details: Parcialmente nuboso 945 m
Muy nuboso 1219 m
2022/12/04 09:00 LEGR 040900Z 00000KT 9999 SCT031 BKN040 09/09 Q1011
LEMG - Malaga (civ/Mil), Spain
Distance from station: OSO 227km
Actualización: Sun, 04-Dec-2022 10:00am CET
Muy nuboso
Muy nuboso
 Viento del O
Viento: O 11 km/h
Temperatura: 13°C
Rocío: 12°C
Humedad: 94%
Barómetro: 1011 hPa
Clouds: Muy nuboso
Visibility: 10 km
Cloud details: Few Clouds 305 m
Muy nuboso 671 m
2022/12/04 09:00 LEMG 040900Z 28006KT 9999 FEW010 BKN022 13/12 Q1011 NOSIG
 
LEZL - Sevilla (civ/Mil, Spain
Distance from station: S 318km
Actualización: Sun, 04-Dec-2022 10:00am CET
Mist, Muy nuboso
Mist, Muy nuboso
 Viento del varies
Viento: varies 4 km/h
Temperatura: 12°C
Rocío: 12°C
Humedad: 100%
Barómetro: 1010 hPa
Resumen: Mist
Clouds: Muy nuboso
Visibility: 4 km
Cloud details: Muy nuboso 61 m
2022/12/04 09:00 LEZL 040900Z VRB02KT 3800 BR BKN002 12/12 Q1010 NOSIG
LEVT - Vitoria, Spain
Distance from station: NO 226km
Actualización: Sun, 04-Dec-2022 10:00am CET
Parcialmente nuboso
Parcialmente nuboso
 Viento del SSO
Viento: SSO 11 km/h
Temperatura: 2°C
Sensación frio: -1°C
Rocío: 1°C
Humedad: 93%
Barómetro: 1009 hPa
Clouds: Parcialmente nuboso
Visibility: 8 km
Cloud details: Parcialmente nuboso 1676 m
2022/12/04 09:00 LEVT 040900Z 21006KT 170V260 8000 SCT055 02/01 Q1009
 
LEBB - Bilbao/Sondica, Spain
Distance from station: NNO 235km
Actualización: Sun, 04-Dec-2022 10:00am CET
Few Clouds
Few Clouds
 Viento del varies
Viento: varies 2 km/h
Temperatura: 6°C
Rocío: 4°C
Humedad: 87%
Barómetro: 1010 hPa
Clouds: Few Clouds
Visibility: 10 km
Cloud details: Few Clouds 1402 m
2022/12/04 09:00 LEBB 040900Z VRB01KT 9999 FEW046 06/04 Q1010 NOSIG
LESO - San Sebastian/Fu, Spain
Distance from station: N 231km
Actualización: Sun, 04-Dec-2022 10:00am CET
Few Clouds
Few Clouds
 Viento del S
Viento: S 7 km/h
Temperatura: 6°C
Sensación frio: 4°C
Rocío: 4°C
Humedad: 87%
Barómetro: 1010 hPa
Clouds: Few Clouds
Visibility: 10 km
Cloud details: Few Clouds 1463 m
2022/12/04 09:00 LESO 040900Z 18004KT 9999 FEW048 06/04 Q1010
 
LEVD - Valladolid(Mil/C, Spain
Distance from station: ONO 239km
Actualización: Sun, 04-Dec-2022 10:00am CET
Mist, Parcialmente nuboso
Mist, Parcialmente nuboso
 Viento del varies
Viento: varies 4 km/h
Temperatura: -1°C
Rocío: -2°C
Humedad: 93%
Barómetro: 1008 hPa
Resumen: Mist
Clouds: Parcialmente nuboso
Visibility: 3 km
2022/12/04 09:00 LEVD 040900Z VRB02KT 3000 BR NSC M01/M02 Q1008
LESA - Salamanca (civ/M, Spain
Distance from station: ONO 349km
Actualización: Sun, 04-Dec-2022 10:00am CET
Lluvia débil, Muy nuboso
Lluvia débil, Muy nuboso
 Viento del S
Viento: S 6 km/h
Temperatura: 2°C
Rocío: 1°C
Humedad: 93%
Barómetro: 1008 hPa
Resumen: Lluvia débil
Clouds: Muy nuboso
Visibility: 8 km
Cloud details: Few Clouds 701 m
Muy nuboso 1433 m
2022/12/04 09:00 LESA 040900Z 17003KT 140V200 8000 -RA FEW023 BKN047 02/01 Q1008
 
LEXJ - Santander/Paraya, Spain
Distance from station: NNO 247km
Actualización: Sun, 04-Dec-2022 10:00am CET
Parcialmente nuboso
Parcialmente nuboso
 Viento del SO
Viento: SO 11 km/h
Temperatura: 7°C
Sensación frio: 5°C
Rocío: 3°C
Humedad: 76%
Barómetro: 1009 hPa
Clouds: Parcialmente nuboso
Visibility: 10 km
Cloud details: Few Clouds 1372 m
Parcialmente nuboso 1768 m
2022/12/04 09:00 LEXJ 040900Z 22006KT 9999 FEW045 SCT058 07/03 Q1009
LEAS - Asturias/Aviles, Spain
Distance from station: NO 214km
Actualización: Sun, 04-Dec-2022 10:00am CET
Few Clouds
Few Clouds
 Viento del SO
Viento: SO 15 km/h
Temperatura: 4°C
Sensación frio: 1°C
Rocío: 3°C
Humedad: 93%
Barómetro: 1008 hPa
Clouds: Few Clouds
Visibility: 10 km
Cloud details: Few Clouds 1372 m
2022/12/04 09:00 LEAS 040900Z 23008KT 9999 FEW045 04/03 Q1008 NOSIG
 
LECO - La Coruna/Alvedr, Spain
Distance from station: ONO 222km
Actualización: Sun, 04-Dec-2022 10:00am CET
Nearby fog, Few clouds
Nearby fog, Few clouds
 Viento del S
Viento: S 9 km/h
Temperatura: 1°C
Sensación frio: -2°C
Rocío: 1°C
Humedad: 100%
Barómetro: 1008 hPa
Resumen: Nearby Fog
Clouds: Few Clouds
Visibility: 10 km
Cloud details: Few Clouds 914 m
2022/12/04 09:00 LECO 040900Z 17005KT 110V200 9999 VCFG FEW030 01/01 Q1008 NOSIG
LEVX - Vigo/Peinador, Spain
Distance from station: O 214km
Actualización: Sun, 04-Dec-2022 10:00am CET
Despejado
Despejado
 Viento del SO
Viento: SO 13 km/h
Temperatura: 2°C
Sensación frio: -1°C
Rocío: 0°C
Humedad: 87%
Barómetro: 1007 hPa
Resumen: Despejado
Visibility: greater than 10 km
2022/12/04 09:00 LEVX 040900Z 22007KT 180V250 CAVOK 02/00 Q1007 NOSIG